Airfield :
LOGIN :

Register | Disclaimer

   EN    FR    IT 

 










Legend :    VFR   Marginal VFR   IFR   Intensive IFR   Very Intensive IFR
Visi :
Ceiling :
>= 8 km
>= 3000ft
5 to 8 km
1000 to 3000 ft
1500m to 5 km
500 to 1000 ft
800 to 1500m
200 to 500 ft
< 800m
< 200 ft
Symbols :   Thunderstorms  Fog  Heavy snow  Heavy precipitations  Wind > 20 kt
SIGMETs :     Misc.  Thunderstorms  Icing  Turbulence  Mountain Waves  Volcanic Ashes






- Airport Elevation : 348 ft
- IATA code : STN


EGSS - London Stansted

CURRENT METAR :
  • 180320Z AUTO 16010KT 9999 -RA //////CB 10/09 Q0998

EXPIRED METARs :
  • 180250Z AUTO 18008KT 9999 -RA FEW010/// SCT047/// //////TCU 10/09 Q0999
  • 180220Z AUTO 19011KT 6000 -RA SCT010/// BKN022/// BKN034/// //////CB 10/10 Q0999
  • 180150Z AUTO 16009KT 9999 SCT034/// //////CB 10/10 Q1000
  • 180120Z AUTO 15009KT 9999 NCD 10/09 Q1000
  • 180050Z AUTO 16010KT 9999 -RA NCD 10/10 Q1001
  • 180020Z AUTO 16010KT 9999 //////TCU 10/10 Q1001

TAF AMD TAF EGSS
Valid from the 18 at 01:00 until the 19 at 06:00 UTC


180105Z 1801/1906 15008KT 9999 SCT025
TEMPO 1801/1804 22015G25KT 2000 +SHRA +TSRA BKN009 BKN020CB
BECMG 1804/1807 24010KT
TEMPO 1804/1821 7000 SHRA
PROB40
TEMPO 1804/1808 21015G25KT 3000 +SHRA BKN012 BKN020CB
PROB30
TEMPO 1812/1818 23017G27KT 4000 +SHRA BKN014 BKN020CB
PROB40 1901/1906 6000
ATIS : +44 1279 669 325



MET'MAP, your aeronautical weather chart ! - Copyright ORBIFLY December 2007 - Disclaimer

ORBIFLY MET'MAP TEAM :

Programming & Development : Alexandra Zaïnal
Concept & Development : Baudouin d'Aumeries
Co-Development & Prog : Marc-Olivier Méhu
Technical & hardware support : Manuel Goepfert

Contact : metmap@orbifly.com




SOURCES & CREDITS :

   NOAA